Time;durP1;ratioP1;P1;durP2;ratioP2;P2;SDS_P1;SDS_P2;PMS_P1;PMS_P2;Temp;Humidity;BMP_temperature;BMP_pressure;BME280_temperature;BME280_humidity;BME280_pressure;Samples;Min_cycle;Max_cycle;Signal;HPM_P1;HPM_P2
2022/05/09 00:00:19;;;;;;;11.18;9.90;;;24.70;99.90;;;;;;5063774;22;20060;-46
2022/05/09 00:02:45;;;;;;;11.27;10.07;;;24.70;99.90;;;;;;5069848;28;20356;-46
2022/05/09 00:05:16;;;;;;;12.27;9.60;;;24.70;99.90;;;;;;5071746;28;20078;-47
2022/05/09 00:07:42;;;;;;;11.50;10.30;;;24.70;99.90;;;;;;5075077;28;20074;-46
2022/05/09 00:10:10;;;;;;;11.23;9.98;;;24.70;99.90;;;;;;5075205;28;20043;-46
2022/05/09 00:12:36;;;;;;;12.02;10.27;;;24.70;99.90;;;;;;5075083;28;20107;-48
2022/05/09 00:15:04;;;;;;;12.68;10.40;;;24.70;99.90;;;;;;5074997;28;20070;-47
2022/05/09 00:17:30;;;;;;;11.27;10.05;;;24.70;99.90;;;;;;5075216;28;20036;-47
2022/05/09 00:19:55;;;;;;;12.07;10.65;;;24.70;99.90;;;;;;5074957;28;20467;-46
2022/05/09 00:22:21;;;;;;;12.88;10.70;;;24.70;99.90;;;;;;5074765;28;20028;-47
2022/05/09 00:24:47;;;;;;;11.32;9.70;;;24.70;99.90;;;;;;5074980;28;20044;-47
2022/05/09 00:27:13;;;;;;;13.32;10.73;;;24.70;99.90;;;;;;5074851;28;20459;-47
2022/05/09 00:29:38;;;;;;;11.65;9.95;;;24.60;99.90;;;;;;5074906;28;20036;-47
2022/05/09 00:32:05;;;;;;;12.40;10.65;;;24.70;99.90;;;;;;5074805;28;20043;-47
2022/05/09 00:34:30;;;;;;;12.82;10.57;;;24.70;99.90;;;;;;5075027;28;20032;-47
2022/05/09 00:36:57;;;;;;;11.70;10.40;;;24.70;99.90;;;;;;5074614;28;20372;-47
2022/05/09 00:39:23;;;;;;;12.60;10.63;;;24.70;99.90;;;;;;5074587;28;20184;-46
2022/05/09 00:41:49;;;;;;;12.13;10.10;;;24.60;99.90;;;;;;5074618;28;20020;-46
2022/05/09 00:44:17;;;;;;;14.20;11.07;;;24.60;99.90;;;;;;5074363;28;20272;-47
2022/05/09 00:46:46;;;;;;;11.25;9.35;;;24.60;99.90;;;;;;5074573;28;20021;-47
2022/05/09 00:49:35;;;;;;;11.93;9.88;;;24.60;99.90;;;;;;5074440;28;20035;-46
2022/05/09 00:52:19;;;;;;;11.23;10.00;;;24.60;99.90;;;;;;5074585;28;20032;-47
2022/05/09 00:54:53;;;;;;;13.23;11.30;;;24.60;99.90;;;;;;5074546;28;20051;-47
2022/05/09 00:57:45;;;;;;;13.43;11.23;;;24.60;99.90;;;;;;5074107;28;20187;-47
2022/05/09 01:00:15;;;;;;;12.77;10.77;;;24.60;99.90;;;;;;5074664;28;20044;-46
2022/05/09 01:02:45;;;;;;;12.05;10.63;;;24.60;99.90;;;;;;5074338;28;20024;-46
2022/05/09 01:05:12;;;;;;;12.65;10.95;;;24.60;99.90;;;;;;5074246;28;20021;-47
2022/05/09 01:07:39;;;;;;;12.00;10.35;;;24.60;99.90;;;;;;5074431;28;20016;-46
2022/05/09 01:10:09;;;;;;;11.18;9.98;;;24.60;99.90;;;;;;5074335;28;20024;-46
2022/05/09 01:12:37;;;;;;;12.35;10.95;;;24.60;99.90;;;;;;5074115;28;20036;-46
2022/05/09 01:15:07;;;;;;;11.93;10.18;;;24.60;99.90;;;;;;5074220;28;20103;-46
2022/05/09 01:17:39;;;;;;;11.32;9.68;;;24.60;99.90;;;;;;5073213;28;20028;-46
2022/05/09 01:20:07;;;;;;;11.57;9.63;;;24.60;99.90;;;;;;5073834;28;20040;-47
2022/05/09 01:22:53;;;;;;;12.60;10.48;;;24.60;99.90;;;;;;5074122;28;20404;-46
2022/05/09 01:25:19;;;;;;;11.15;9.55;;;24.60;99.90;;;;;;5073723;28;20059;-47
2022/05/09 01:27:46;;;;;;;11.35;9.77;;;24.50;99.90;;;;;;5073708;28;20113;-46
2022/05/09 01:30:33;;;;;;;11.10;9.75;;;24.50;99.90;;;;;;5073740;28;20024;-46
2022/05/09 01:33:12;;;;;;;10.73;9.20;;;24.50;99.90;;;;;;5073415;28;20040;-46
2022/05/09 01:35:50;;;;;;;9.93;8.85;;;24.50;99.90;;;;;;5073608;28;20024;-46
2022/05/09 01:38:33;;;;;;;11.30;9.18;;;24.50;99.90;;;;;;5073456;28;20507;-46
2022/05/09 01:40:59;;;;;;;10.55;9.18;;;24.50;99.90;;;;;;5073559;28;20032;-45
2022/05/09 01:43:34;;;;;;;10.05;8.63;;;24.50;99.90;;;;;;5073449;28;20024;-45
2022/05/09 01:46:03;;;;;;;10.43;8.57;;;24.50;99.90;;;;;;5073484;28;20036;-45
2022/05/09 01:51:13;;;;;;;11.10;9.00;;;24.50;99.90;;;;;;5073660;28;20383;-46
2022/05/09 01:53:39;;;;;;;11.48;8.68;;;24.50;99.90;;;;;;5073260;28;20024;-46
2022/05/09 01:56:05;;;;;;;9.77;7.97;;;24.50;99.90;;;;;;5073534;28;20024;-46
2022/05/09 01:58:31;;;;;;;8.48;7.60;;;24.50;99.90;;;;;;5073010;28;20391;-46
2022/05/09 02:00:57;;;;;;;9.32;7.57;;;24.50;99.90;;;;;;5070033;22;20206;-52
2022/05/09 02:03:23;;;;;;;8.88;7.75;;;24.40;99.90;;;;;;5053214;28;20033;-49
2022/05/09 02:05:49;;;;;;;10.38;8.85;;;24.50;99.90;;;;;;5053026;28;20028;-50
2022/05/09 02:08:15;;;;;;;8.30;7.50;;;24.50;99.90;;;;;;5053165;28;20029;-51
2022/05/09 02:10:41;;;;;;;10.18;9.00;;;24.50;99.90;;;;;;5052965;28;20035;-51
2022/05/09 02:15:52;;;;;;;8.02;7.07;;;24.50;99.90;;;;;;5053038;28;20043;-51
2022/05/09 02:18:18;;;;;;;8.73;7.50;;;24.50;99.90;;;;;;5052802;28;20036;-49
2022/05/09 02:20:43;;;;;;;7.47;6.68;;;24.50;99.90;;;;;;5052920;28;20387;-49
2022/05/09 02:23:09;;;;;;;9.27;7.22;;;24.50;99.90;;;;;;5052694;28;20496;-49
2022/05/09 02:25:36;;;;;;;7.85;7.03;;;24.40;99.90;;;;;;5052661;28;20031;-49
2022/05/09 02:28:06;;;;;;;8.23;7.03;;;24.40;99.90;;;;;;5052444;28;20463;-51
2022/05/09 02:30:33;;;;;;;7.00;6.30;;;24.40;99.90;;;;;;5051191;28;20025;-51
2022/05/09 02:33:17;;;;;;;6.97;5.93;;;24.40;99.90;;;;;;5052519;28;20024;-50
2022/05/09 02:35:43;;;;;;;8.02;6.70;;;24.40;99.90;;;;;;5052518;28;20035;-49
2022/05/09 02:38:09;;;;;;;6.97;6.20;;;24.40;99.90;;;;;;5052268;28;20032;-49
2022/05/09 02:40:36;;;;;;;8.43;6.88;;;24.40;99.90;;;;;;5052300;28;20039;-49
2022/05/09 02:43:02;;;;;;;7.15;6.30;;;24.40;99.90;;;;;;5052231;28;20021;-49
2022/05/09 02:45:46;;;;;;;7.30;6.47;;;24.40;99.90;;;;;;5052381;28;20025;-51
2022/05/09 02:48:13;;;;;;;8.27;6.35;;;24.40;99.90;;;;;;5052210;28;20029;-52
2022/05/09 02:50:39;;;;;;;7.55;6.40;;;24.40;99.90;;;;;;5052224;28;20444;-49
2022/05/09 02:53:07;;;;;;;6.38;5.75;;;24.40;99.90;;;;;;5052179;28;20048;-49
2022/05/09 02:55:34;;;;;;;6.47;5.55;;;24.40;99.90;;;;;;5052070;28;20057;-49
2022/05/09 03:00:45;;;;;;;7.25;5.75;;;24.40;99.90;;;;;;5075531;22;20055;-47
2022/05/09 03:05:56;;;;;;;5.97;5.20;;;24.40;99.90;;;;;;5072240;28;20082;-46
2022/05/09 03:08:23;;;;;;;5.70;5.07;;;24.40;99.90;;;;;;5072064;28;20032;-47
2022/05/09 03:10:48;;;;;;;6.28;5.57;;;24.40;99.90;;;;;;5071784;28;20387;-47
2022/05/09 03:13:14;;;;;;;6.15;5.18;;;24.40;99.90;;;;;;5071786;28;20028;-46
2022/05/09 03:15:46;;;;;;;6.35;4.93;;;24.40;99.90;;;;;;5071703;28;20112;-46
2022/05/09 03:18:14;;;;;;;6.53;5.85;;;24.40;99.90;;;;;;5070362;28;20040;-46
2022/05/09 03:20:41;;;;;;;5.95;5.35;;;24.40;99.90;;;;;;5071828;28;20052;-46
2022/05/09 03:23:08;;;;;;;5.88;5.28;;;24.40;99.90;;;;;;5071765;28;20023;-47
2022/05/09 03:25:35;;;;;;;5.57;4.10;;;24.40;99.90;;;;;;5071666;28;20468;-46
2022/05/09 03:28:06;;;;;;;5.07;4.57;;;24.30;99.90;;;;;;5071526;28;20040;-46
2022/05/09 03:30:33;;;;;;;5.75;4.50;;;24.30;99.90;;;;;;5071529;28;20498;-46
2022/05/09 03:32:58;;;;;;;4.78;4.28;;;24.40;99.90;;;;;;5071547;28;20499;-46
2022/05/09 03:35:24;;;;;;;4.78;4.28;;;24.40;99.90;;;;;;5071800;28;20032;-47
2022/05/09 03:37:50;;;;;;;5.05;4.50;;;24.40;99.90;;;;;;5071393;28;20377;-46
2022/05/09 03:40:18;;;;;;;4.47;4.07;;;24.40;99.90;;;;;;5070806;28;20033;-47
2022/05/09 03:42:44;;;;;;;4.90;4.00;;;24.40;99.90;;;;;;5071373;28;20079;-46
2022/05/09 03:45:11;;;;;;;4.72;4.25;;;24.40;99.90;;;;;;5067254;28;20500;-46
2022/05/09 03:47:37;;;;;;;4.38;3.97;;;24.40;99.90;;;;;;5059478;28;20476;-46
2022/05/09 03:50:22;;;;;;;5.22;4.43;;;24.40;99.90;;;;;;5071253;28;20032;-46
2022/05/09 03:52:48;;;;;;;5.10;4.10;;;24.30;99.90;;;;;;5071257;28;20029;-47
2022/05/09 03:55:14;;;;;;;4.53;3.88;;;24.30;99.90;;;;;;5071301;28;20024;-46
2022/05/09 03:57:51;;;;;;;5.15;3.78;;;24.30;99.90;;;;;;5071192;28;20028;-46
2022/05/09 04:00:19;;;;;;;3.92;3.53;;;24.30;99.90;;;;;;5071715;28;20036;-47
2022/05/09 04:02:46;;;;;;;5.13;4.07;;;24.30;99.90;;;;;;5071602;28;20474;-47
2022/05/09 04:05:16;;;;;;;4.45;4.05;;;24.30;99.90;;;;;;5071154;28;20025;-47
2022/05/09 04:10:37;;;;;;;4.05;3.65;;;24.30;99.90;;;;;;5071333;28;20035;-47
2022/05/09 04:13:04;;;;;;;4.55;3.97;;;24.30;99.90;;;;;;5071060;28;20021;-46
2022/05/09 04:18:17;;;;;;;3.67;3.38;;;24.30;99.90;;;;;;5070990;28;20116;-46
2022/05/09 04:20:45;;;;;;;3.63;3.25;;;24.30;99.90;;;;;;5071160;28;20032;-46
2022/05/09 04:23:10;;;;;;;5.20;3.95;;;24.30;99.90;;;;;;5071002;28;20170;-46
2022/05/09 04:25:36;;;;;;;4.03;3.58;;;24.30;99.90;;;;;;5070909;28;20392;-47
2022/05/09 04:28:06;;;;;;;4.25;3.30;;;24.30;99.90;;;;;;5070937;28;20025;-47
2022/05/09 04:30:35;;;;;;;4.20;3.33;;;24.30;99.90;;;;;;5070751;28;20032;-44
2022/05/09 04:33:01;;;;;;;5.18;3.80;;;24.30;99.90;;;;;;5070853;28;20036;-44
2022/05/09 04:35:28;;;;;;;3.75;3.28;;;24.30;99.90;;;;;;5070977;28;20464;-47
2022/05/09 04:37:54;;;;;;;3.72;3.05;;;24.30;99.90;;;;;;5070777;28;20403;-46
2022/05/09 04:40:26;;;;;;;3.83;3.43;;;24.30;99.90;;;;;;5070886;28;20260;-47
2022/05/09 04:42:52;;;;;;;3.83;3.13;;;24.30;99.90;;;;;;5070868;28;20605;-47
2022/05/09 04:45:18;;;;;;;3.20;2.88;;;24.30;99.90;;;;;;5070989;28;20039;-47
2022/05/09 04:47:45;;;;;;;4.80;3.65;;;24.30;99.90;;;;;;5070706;28;20027;-47
2022/05/09 04:50:13;;;;;;;4.47;3.90;;;24.30;99.90;;;;;;5070679;28;20053;-47
2022/05/09 04:52:40;;;;;;;3.88;3.10;;;24.30;99.90;;;;;;5073419;28;20764;-47
2022/05/09 04:55:07;;;;;;;3.30;3.00;;;24.30;99.90;;;;;;5074251;28;20031;-47
2022/05/09 04:57:33;;;;;;;3.92;3.53;;;24.30;99.90;;;;;;5074283;28;20472;-47
2022/05/09 05:00:01;;;;;;;4.75;3.60;;;24.30;99.90;;;;;;5074322;28;20407;-47
2022/05/09 05:02:27;;;;;;;4.00;3.33;;;24.30;99.90;;;;;;5074330;28;20032;-47
2022/05/09 05:04:53;;;;;;;5.00;3.90;;;24.30;99.90;;;;;;5074229;28;20329;-47
2022/05/09 05:07:18;;;;;;;3.10;2.80;;;24.30;99.90;;;;;;5074116;28;20024;-47
2022/05/09 05:09:44;;;;;;;3.53;3.22;;;24.30;99.90;;;;;;5074128;28;20380;-47
2022/05/09 05:12:10;;;;;;;3.72;3.03;;;24.30;99.90;;;;;;5074079;28;20008;-48
2022/05/09 05:14:36;;;;;;;4.57;3.40;;;24.30;99.90;;;;;;5073786;28;20035;-47
2022/05/09 05:17:02;;;;;;;6.20;3.60;;;24.30;99.90;;;;;;5074068;28;20056;-47
2022/05/09 05:19:34;;;;;;;3.88;3.22;;;24.30;99.90;;;;;;5074107;28;20040;-47
2022/05/09 05:22:18;;;;;;;5.50;3.35;;;24.30;99.90;;;;;;5074100;28;20040;-47
2022/05/09 05:24:45;;;;;;;3.55;3.22;;;24.30;99.90;;;;;;5073810;28;20035;-47
2022/05/09 05:27:12;;;;;;;3.27;2.97;;;24.30;99.90;;;;;;5073842;28;20426;-47
2022/05/09 05:29:39;;;;;;;3.33;3.03;;;24.20;99.90;;;;;;5073814;28;20257;-47
2022/05/09 05:32:20;;;;;;;3.22;2.85;;;24.20;99.90;;;;;;5073762;28;20021;-46
2022/05/09 05:34:49;;;;;;;3.85;3.55;;;24.30;99.90;;;;;;5073633;28;20028;-46
2022/05/09 05:37:16;;;;;;;3.40;3.05;;;24.30;99.90;;;;;;5072290;28;20566;-46
2022/05/09 05:39:46;;;;;;;5.15;3.50;;;24.30;99.90;;;;;;5073506;28;20063;-46
2022/05/09 05:42:15;;;;;;;3.50;3.10;;;24.30;99.90;;;;;;5073546;28;20032;-47
2022/05/09 05:44:41;;;;;;;5.03;3.00;;;24.20;99.90;;;;;;5073439;28;20052;-46
2022/05/09 05:47:10;;;;;;;3.58;3.08;;;24.30;99.90;;;;;;5073464;28;20487;-47
2022/05/09 05:49:37;;;;;;;3.63;2.90;;;24.30;99.90;;;;;;5073324;28;20285;-48
2022/05/09 05:52:04;;;;;;;3.83;3.35;;;24.30;99.90;;;;;;5073560;28;20025;-47
2022/05/09 05:54:48;;;;;;;7.43;3.15;;;24.30;99.90;;;;;;5073572;28;20108;-47
2022/05/09 05:57:26;;;;;;;3.63;2.90;;;24.30;99.90;;;;;;5073097;28;20082;-47
2022/05/09 05:59:54;;;;;;;;;;;24.30;99.90;;;;;;5072148;28;20048;-48
2022/05/09 06:02:20;;;;;;;5.15;3.70;;;24.30;99.90;;;;;;5072949;28;19905;-47
2022/05/09 06:04:46;;;;;;;4.07;3.67;;;24.30;99.90;;;;;;5072927;28;20029;-47
2022/05/09 06:07:15;;;;;;;3.17;2.88;;;24.30;99.90;;;;;;5073173;28;20487;-47
2022/05/09 06:09:59;;;;;;;4.75;3.17;;;24.30;99.90;;;;;;5072940;28;20029;-46
2022/05/09 06:12:25;;;;;;;3.25;2.88;;;24.30;99.90;;;;;;5072791;28;20221;-47
2022/05/09 06:17:37;;;;;;;3.55;3.15;;;24.30;99.90;;;;;;5071864;28;20090;-47
2022/05/09 06:20:09;;;;;;;4.55;2.97;;;24.30;99.90;;;;;;5073118;28;20031;-47
2022/05/09 06:22:39;;;;;;;3.30;2.75;;;24.30;99.90;;;;;;5072699;28;20043;-47
2022/05/09 06:25:14;;;;;;;3.70;2.78;;;24.30;99.90;;;;;;5072646;28;20051;-47
2022/05/09 06:27:41;;;;;;;3.65;2.88;;;24.30;99.90;;;;;;5072564;28;20082;-46
2022/05/09 06:30:09;;;;;;;5.30;3.00;;;24.30;99.90;;;;;;5072614;28;20063;-47
2022/05/09 06:32:35;;;;;;;5.85;3.85;;;24.30;99.90;;;;;;5072778;28;20036;-46
2022/05/09 06:35:05;;;;;;;4.80;3.40;;;24.30;99.90;;;;;;5072009;28;20036;-46
2022/05/09 06:37:33;;;;;;;4.30;3.50;;;24.30;99.90;;;;;;5072244;28;20029;-46
2022/05/09 06:40:03;;;;;;;3.78;2.95;;;24.30;99.90;;;;;;5072314;28;20051;-46
2022/05/09 06:42:28;;;;;;;4.05;2.95;;;24.30;99.90;;;;;;5072494;28;20104;-45
2022/05/09 06:44:55;;;;;;;4.70;3.28;;;24.30;99.90;;;;;;5072368;28;20047;-46
2022/05/09 06:47:21;;;;;;;6.32;4.20;;;24.30;99.90;;;;;;5072247;28;20017;-46
2022/05/09 06:49:47;;;;;;;4.43;3.55;;;24.40;99.90;;;;;;5072174;28;20028;-46
2022/05/09 06:52:13;;;;;;;5.40;3.05;;;24.30;99.90;;;;;;5072170;28;20342;-45
2022/05/09 06:54:39;;;;;;;4.88;3.65;;;24.30;99.90;;;;;;5072052;28;20503;-45
2022/05/09 06:57:05;;;;;;;5.00;4.28;;;24.40;99.90;;;;;;5072110;28;20048;-46
2022/05/09 06:59:35;;;;;;;4.63;3.83;;;24.30;99.90;;;;;;5071608;28;20170;-45
2022/05/09 07:02:02;;;;;;;6.03;3.92;;;24.30;99.90;;;;;;5071808;28;20131;-45
2022/05/09 07:04:28;;;;;;;4.55;3.90;;;24.40;99.90;;;;;;5071774;28;20130;-45
2022/05/09 07:06:54;;;;;;;5.95;4.78;;;24.40;99.90;;;;;;5071830;28;20162;-45
2022/05/09 07:09:19;;;;;;;4.65;3.90;;;24.40;99.90;;;;;;5072075;28;20111;-46
2022/05/09 07:11:45;;;;;;;6.35;4.05;;;24.40;99.90;;;;;;5071557;28;20025;-46
2022/05/09 07:14:11;;;;;;;6.07;4.10;;;24.40;99.90;;;;;;5070082;28;20468;-46
2022/05/09 07:16:37;;;;;;;5.97;4.25;;;24.40;99.90;;;;;;5071169;28;20029;-45
2022/05/09 07:19:04;;;;;;;4.63;3.60;;;24.40;99.90;;;;;;5071474;28;20040;-46
2022/05/09 07:21:31;;;;;;;5.07;3.85;;;24.40;99.90;;;;;;5071592;28;20039;-46
2022/05/09 07:23:58;;;;;;;5.15;3.95;;;24.40;99.90;;;;;;5071452;28;20040;-46
2022/05/09 07:26:23;;;;;;;5.57;3.97;;;24.40;99.90;;;;;;5071519;28;20025;-45
2022/05/09 07:28:49;;;;;;;4.47;3.90;;;24.40;99.90;;;;;;5071516;28;20016;-45
2022/05/09 07:31:15;;;;;;;6.55;4.32;;;24.40;99.90;;;;;;5071251;28;20029;-46
2022/05/09 07:33:42;;;;;;;4.75;3.78;;;24.40;99.90;;;;;;5071205;28;20013;-46
2022/05/09 07:36:08;;;;;;;7.50;4.43;;;24.40;99.90;;;;;;5071426;28;20021;-46
2022/05/09 07:38:33;;;;;;;5.35;3.92;;;24.50;99.90;;;;;;5071109;28;20393;-46
2022/05/09 07:40:59;;;;;;;5.07;4.07;;;24.40;99.90;;;;;;5071121;28;20055;-46
2022/05/09 07:43:28;;;;;;;4.82;4.00;;;24.40;99.90;;;;;;5069969;28;20079;-45
2022/05/09 07:45:55;;;;;;;5.45;3.95;;;24.40;99.90;;;;;;5071241;28;20033;-46
2022/05/09 07:48:25;;;;;;;6.75;3.90;;;24.50;99.90;;;;;;5071022;28;20025;-46
2022/05/09 07:50:52;;;;;;;4.43;4.03;;;24.40;99.90;;;;;;5071036;28;20036;-46
2022/05/09 07:53:22;;;;;;;5.00;3.70;;;24.40;99.90;;;;;;5071012;28;20021;-46
2022/05/09 07:55:48;;;;;;;7.13;4.53;;;24.50;99.90;;;;;;5071052;28;20025;-46
2022/05/09 07:58:14;;;;;;;5.07;3.85;;;24.40;99.90;;;;;;5070866;28;20033;-46
2022/05/09 08:00:42;;;;;;;5.72;4.70;;;24.40;99.90;;;;;;5071115;28;20048;-46
2022/05/09 08:03:12;;;;;;;;;;;24.40;99.90;;;;;;5071677;28;20031;-45
2022/05/09 08:05:38;;;;;;;5.18;3.67;;;24.50;99.90;;;;;;5071289;28;20336;-45
2022/05/09 08:08:04;;;;;;;4.70;3.88;;;24.50;99.90;;;;;;5070930;28;20035;-45
2022/05/09 08:10:30;;;;;;;5.90;4.13;;;24.50;99.90;;;;;;5070737;28;20111;-45
2022/05/09 08:12:58;;;;;;;7.43;4.13;;;24.50;99.90;;;;;;5070946;28;20103;-46
2022/05/09 08:15:25;;;;;;;5.95;4.63;;;24.50;99.90;;;;;;5070744;28;20116;-45
2022/05/09 08:17:52;;;;;;;5.30;3.65;;;24.40;99.90;;;;;;5070887;28;20465;-45
2022/05/09 08:20:18;;;;;;;6.82;4.15;;;24.40;99.90;;;;;;5070885;28;20040;-46
2022/05/09 08:22:45;;;;;;;4.97;3.80;;;24.40;99.90;;;;;;5070940;28;20404;-45
2022/05/09 08:25:14;;;;;;;4.53;3.40;;;24.40;99.90;;;;;;5070941;28;20506;-45
2022/05/09 08:27:41;;;;;;;6.00;4.18;;;24.50;99.90;;;;;;5072490;28;20269;-45
2022/05/09 08:30:07;;;;;;;7.18;4.60;;;24.50;99.90;;;;;;5074772;28;20029;-45
2022/05/09 08:32:36;;;;;;;5.45;4.30;;;24.50;99.90;;;;;;5074698;28;20460;-45
2022/05/09 08:35:03;;;;;;;4.80;3.88;;;24.50;99.90;;;;;;5074619;28;20443;-45
2022/05/09 08:37:28;;;;;;;4.23;3.80;;;24.50;99.90;;;;;;5074640;28;20086;-45
2022/05/09 08:39:54;;;;;;;5.32;4.35;;;24.50;99.90;;;;;;5074640;28;20620;-45
2022/05/09 08:42:40;;;;;;;3.63;3.17;;;24.50;99.90;;;;;;5074499;28;20402;-45
2022/05/09 08:45:20;;;;;;;5.95;4.00;;;24.50;99.90;;;;;;5074627;28;20028;-45
2022/05/09 08:48:14;;;;;;;4.30;3.67;;;24.50;99.90;;;;;;5074263;28;20070;-47
2022/05/09 08:50:48;;;;;;;6.53;4.68;;;24.50;99.90;;;;;;5074518;28;20095;-45
2022/05/09 08:53:23;;;;;;;5.05;3.72;;;24.50;99.90;;;;;;5074217;28;20480;-45
2022/05/09 08:55:51;;;;;;;5.82;4.13;;;24.50;99.90;;;;;;5074259;28;20028;-46
2022/05/09 08:58:39;;;;;;;7.32;4.45;;;24.50;99.90;;;;;;5074138;28;20036;-46
2022/05/09 09:01:17;;;;;;;5.65;3.67;;;24.50;99.90;;;;;;5073933;28;20037;-46
2022/05/09 09:03:56;;;;;;;6.90;4.00;;;24.50;99.90;;;;;;5074039;28;20557;-46
2022/05/09 09:06:47;;;;;;;3.95;3.50;;;24.60;99.90;;;;;;5074026;28;20368;-46
2022/05/09 09:09:31;;;;;;;5.68;3.92;;;24.60;99.90;;;;;;5074252;28;20020;-46
2022/05/09 09:12:03;;;;;;;4.63;3.83;;;24.60;99.90;;;;;;5073880;28;20034;-46
2022/05/09 09:14:58;;;;;;;5.50;4.35;;;24.60;99.90;;;;;;5073926;28;20028;-46
2022/05/09 09:17:34;;;;;;;5.80;4.75;;;24.60;99.90;;;;;;5056129;28;20032;-46
2022/05/09 09:20:15;;;;;;;5.47;4.15;;;24.60;99.90;;;;;;5073808;28;20123;-46
2022/05/09 09:23:14;;;;;;;5.07;3.72;;;24.60;99.90;;;;;;5073994;28;20029;-48
2022/05/09 09:26:01;;;;;;;6.80;4.32;;;24.60;99.90;;;;;;5073666;28;20078;-46
2022/05/09 09:28:49;;;;;;;7.32;4.60;;;24.60;99.90;;;;;;5073657;28;20028;-46
2022/05/09 09:31:30;;;;;;;4.90;3.90;;;24.60;99.90;;;;;;5073649;28;20041;-46
2022/05/09 09:34:19;;;;;;;5.15;4.07;;;24.60;99.90;;;;;;5072411;28;20048;-46
2022/05/09 09:36:53;;;;;;;4.72;3.95;;;24.60;99.90;;;;;;5063464;28;20029;-45
2022/05/09 09:39:20;;;;;;;4.38;3.85;;;24.60;99.90;;;;;;5072422;28;20037;-45
2022/05/09 09:41:47;;;;;;;6.07;4.45;;;24.60;99.90;;;;;;5073708;28;20028;-46
2022/05/09 09:44:25;;;;;;;8.52;3.85;;;24.70;99.90;;;;;;5072354;28;20040;-46
2022/05/09 09:47:09;;;;;;;6.13;4.20;;;24.70;99.90;;;;;;5073340;28;20555;-46
2022/05/09 09:49:41;;;;;;;5.00;4.50;;;24.60;99.90;;;;;;5073319;28;20028;-46
2022/05/09 09:52:21;;;;;;;5.57;4.40;;;24.70;99.90;;;;;;5073155;28;20506;-45
2022/05/09 09:55:06;;;;;;;4.60;3.70;;;24.70;99.90;;;;;;5073100;28;20024;-45
2022/05/09 09:57:37;;;;;;;6.28;4.10;;;24.70;99.90;;;;;;5072996;28;20036;-46
2022/05/09 10:00:19;;;;;;;4.70;3.90;;;24.70;99.90;;;;;;5073110;28;20127;-45
2022/05/09 10:02:48;;;;;;;5.85;3.85;;;24.70;99.90;;;;;;5073094;28;20025;-46
2022/05/09 10:05:17;;;;;;;6.18;4.25;;;24.70;99.90;;;;;;5073175;28;20055;-46
2022/05/09 10:07:44;;;;;;;4.60;3.63;;;24.70;99.90;;;;;;5073057;28;20415;-46
2022/05/09 10:10:18;;;;;;;4.72;3.70;;;24.70;99.90;;;;;;5072871;28;20025;-46
2022/05/09 10:12:49;;;;;;;4.40;3.60;;;24.70;99.90;;;;;;5072913;28;20480;-46
2022/05/09 10:15:29;;;;;;;3.92;3.53;;;24.70;99.90;;;;;;5072744;28;20111;-46
2022/05/09 10:17:57;;;;;;;4.72;3.90;;;24.70;99.90;;;;;;5072495;28;20036;-46
2022/05/09 10:20:41;;;;;;;5.72;3.63;;;24.70;99.90;;;;;;5072460;28;20046;-46
2022/05/09 10:26:24;;;;;;;3.97;3.53;;;24.70;99.90;;;;;;5072740;28;20536;-46
2022/05/09 10:28:54;;;;;;;5.45;4.45;;;24.80;99.90;;;;;;5070947;28;20406;-47
2022/05/09 10:31:50;;;;;;;5.38;3.58;;;24.80;99.90;;;;;;5072522;28;20055;-46
2022/05/09 10:34:31;;;;;;;5.85;4.10;;;24.80;99.90;;;;;;5072540;28;20027;-46
2022/05/09 10:37:00;;;;;;;5.78;4.55;;;24.80;99.90;;;;;;5072326;28;20029;-46
2022/05/09 10:39:51;;;;;;;6.95;4.70;;;24.80;99.90;;;;;;5072051;28;20044;-47
2022/05/09 10:42:27;;;;;;;4.95;4.28;;;24.80;99.90;;;;;;5072270;28;20016;-47
2022/05/09 10:45:18;;;;;;;5.07;4.40;;;24.80;99.90;;;;;;5072037;28;20028;-46
2022/05/09 10:47:56;;;;;;;6.22;4.25;;;24.90;99.90;;;;;;5071938;28;20029;-46
2022/05/09 10:50:51;;;;;;;4.32;3.72;;;24.90;99.90;;;;;;5071483;28;20036;-46
2022/05/09 10:53:34;;;;;;;5.20;3.75;;;24.90;99.90;;;;;;5062808;28;20037;-46
2022/05/09 10:56:16;;;;;;;4.63;4.03;;;24.90;99.90;;;;;;5071594;28;20071;-47
2022/05/09 10:58:54;;;;;;;5.60;4.00;;;24.90;99.90;;;;;;5071546;28;20036;-47
2022/05/09 11:01:38;;;;;;;4.70;4.15;;;24.90;99.90;;;;;;5071654;28;20123;-47
2022/05/09 11:04:04;;;;;;;5.88;4.13;;;24.90;99.90;;;;;;5071675;28;20115;-47
2022/05/09 11:07:00;;;;;;;5.50;4.20;;;25.00;99.90;;;;;;5071661;28;20124;-47
2022/05/09 11:09:45;;;;;;;4.38;3.78;;;25.00;99.90;;;;;;5071672;28;20016;-46
2022/05/09 11:12:16;;;;;;;4.28;3.70;;;25.00;99.90;;;;;;5071752;28;20103;-46
2022/05/09 11:15:01;;;;;;;4.68;3.65;;;25.00;99.90;;;;;;5071469;28;20399;-46
2022/05/09 11:17:48;;;;;;;5.95;4.00;;;25.00;99.90;;;;;;5071572;28;20100;-46
2022/05/09 11:20:28;;;;;;;4.13;3.72;;;25.00;99.90;;;;;;5071588;28;20039;-47
2022/05/09 11:23:45;;;;;;;5.97;4.57;;;25.00;99.90;;;;;;5071649;28;20096;-46
2022/05/09 11:26:17;;;;;;;;;;;25.10;99.90;;;;;;5037897;28;20396;-47
2022/05/09 11:28:46;;;;;;;4.55;3.88;;;25.10;99.90;;;;;;5071395;28;19905;-47
2022/05/09 11:31:28;;;;;;;4.22;3.75;;;25.10;99.90;;;;;;5071509;28;20033;-46
2022/05/09 11:34:20;;;;;;;4.47;3.78;;;25.10;99.90;;;;;;5071248;28;20422;-46
2022/05/09 11:37:10;;;;;;;3.85;3.15;;;25.10;99.90;;;;;;5071292;28;20025;-46
2022/05/09 11:40:07;;;;;;;4.88;3.88;;;25.10;99.90;;;;;;5071369;28;20040;-46
2022/05/09 11:45:47;;;;;;;5.32;3.45;;;25.10;99.90;;;;;;5071295;28;20097;-46
2022/05/09 11:48:25;;;;;;;4.22;3.75;;;25.10;99.90;;;;;;5069975;28;20395;-46
2022/05/09 11:51:16;;;;;;;4.65;3.67;;;25.20;99.90;;;;;;5071545;28;20028;-46
2022/05/09 11:53:48;;;;;;;5.25;3.90;;;25.20;99.90;;;;;;5071228;28;20036;-46
2022/05/09 11:56:14;;;;;;;3.50;2.80;;;25.20;99.90;;;;;;5071131;28;20146;-47
2022/05/09 11:58:43;;;;;;;4.10;3.55;;;25.20;99.90;;;;;;5071125;28;20033;-46
2022/05/09 12:01:09;;;;;;;4.00;3.13;;;25.20;99.90;;;;;;5070451;28;20093;-47
2022/05/09 12:03:55;;;;;;;4.82;3.97;;;25.20;99.90;;;;;;5070877;28;20541;-46
2022/05/09 12:06:30;;;;;;;4.57;3.47;;;25.20;99.90;;;;;;5071208;28;20024;-46
2022/05/09 12:08:58;;;;;;;3.45;2.95;;;25.20;99.90;;;;;;5071042;28;20054;-46
2022/05/09 12:11:29;;;;;;;3.53;3.22;;;25.30;99.90;;;;;;5070801;28;20021;-46
2022/05/09 12:14:50;;;;;;;4.53;3.55;;;25.30;99.90;;;;;;5070886;28;20044;-46
2022/05/09 12:17:36;;;;;;;3.75;3.03;;;25.30;99.90;;;;;;4989131;28;20057;-46
2022/05/09 12:20:11;;;;;;;3.88;3.00;;;25.30;99.90;;;;;;5065407;28;20087;-47
2022/05/09 12:22:49;;;;;;;4.05;3.10;;;25.30;99.90;;;;;;5070762;28;20085;-47
2022/05/09 12:28:15;;;;;;;5.05;3.40;;;25.30;99.90;;;;;;5056756;28;20036;-46
2022/05/09 12:30:52;;;;;;;3.92;3.40;;;25.30;99.90;;;;;;5070819;28;20032;-46
2022/05/09 12:33:20;;;;;;;4.20;2.97;;;25.30;99.90;;;;;;5070674;28;20021;-46
2022/05/09 12:35:48;;;;;;;4.65;3.25;;;25.40;99.90;;;;;;5070582;28;20055;-46
2022/05/09 12:38:20;;;;;;;4.57;3.60;;;25.40;99.90;;;;;;5070547;28;20032;-46
2022/05/09 12:40:46;;;;;;;3.75;3.33;;;25.40;99.90;;;;;;5070788;28;20051;-46
2022/05/09 12:43:12;;;;;;;4.75;3.78;;;25.40;99.90;;;;;;5070588;28;20025;-46
2022/05/09 12:45:40;;;;;;;4.20;3.28;;;25.40;99.90;;;;;;5070644;28;20021;-46
2022/05/09 12:48:10;;;;;;;7.05;5.28;;;25.40;99.90;;;;;;5070651;28;20040;-46
2022/05/09 12:51:00;;;;;;;4.70;4.10;;;25.40;99.90;;;;;;5070522;28;20097;-46
2022/05/09 12:53:32;;;;;;;7.00;5.53;;;25.40;99.90;;;;;;5070427;28;20032;-46
2022/05/09 12:55:58;;;;;;;4.75;3.72;;;25.40;99.90;;;;;;5070580;28;20388;-46
2022/05/09 12:58:39;;;;;;;5.15;4.32;;;25.40;99.90;;;;;;5070555;28;20025;-45
2022/05/09 13:01:16;;;;;;;6.43;5.18;;;25.50;99.90;;;;;;5070261;28;20488;-46
2022/05/09 13:03:43;;;;;;;;;;;25.50;99.90;;;;;;5070812;28;20106;-46
2022/05/09 13:06:19;;;;;;;5.17;4.33;;;25.50;99.90;;;;;;5070470;28;19928;-45
2022/05/09 13:08:45;;;;;;;4.88;4.28;;;25.50;99.90;;;;;;5070415;28;20348;-47
2022/05/09 13:11:15;;;;;;;5.95;4.68;;;25.50;99.90;;;;;;5070369;28;20103;-46
2022/05/09 13:13:59;;;;;;;5.70;4.50;;;25.50;99.90;;;;;;5071674;28;20357;-46
2022/05/09 13:16:31;;;;;;;5.68;4.90;;;25.50;99.90;;;;;;5074130;28;20021;-46
2022/05/09 13:18:59;;;;;;;7.18;4.88;;;25.50;99.90;;;;;;5073862;28;20040;-46
2022/05/09 13:21:28;;;;;;;5.70;5.00;;;25.60;99.90;;;;;;5074028;28;20486;-46
2022/05/09 13:23:55;;;;;;;6.75;5.13;;;25.60;99.90;;;;;;5074062;28;20452;-46
2022/05/09 13:26:23;;;;;;;;;;;25.60;99.90;;;;;;5074159;28;20074;-46
2022/05/09 13:28:52;;;;;;;5.22;4.35;;;25.60;99.90;;;;;;5073731;28;19936;-46
2022/05/09 13:31:46;;;;;;;6.57;4.95;;;25.60;99.90;;;;;;5073625;28;20373;-46
2022/05/09 13:34:42;;;;;;;6.25;4.85;;;25.60;99.90;;;;;;5070729;28;20040;-46
2022/05/09 13:37:13;;;;;;;5.35;4.80;;;25.60;99.90;;;;;;5073589;28;20031;-46